Flight Track Log - Related Links

Times and Time Zones

All times are in EDT time to prevent confusion due to time zone crossing. See the CSJ725 flight status page for this flight to view local times or setup timezone preferences in your user account.

Time Position Orientation Groundspeed Altitude Reporting Facility
EDT Latitude Longitude Course Direction KTS MPH feet Rate Location/Type
Fri 12:38:29 AM 43.1667 -79.9000 360° North 10 12 800  Level Toronto Center
Fri 12:39:29 AM 43.1667 -79.9000 236° Southwest 20 23 800 300 Level Toronto Center
Fri 12:40:29 AM 43.1500 -79.9333 236° Southwest 90 104 1,400 950 Climbing Toronto Center
Fri 12:41:29 AM 43.1333 -79.9500 216° Southwest 100 115 2,700 1,350 Climbing Toronto Center
Fri 12:42:29 AM 43.1167 -79.9833 236° Southwest 100 115 4,100 1,350 Climbing Toronto Center
Fri 12:43:29 AM 43.1000 -80.0000 216° Southwest 90 104 5,400 950 Climbing Toronto Center
Fri 12:44:29 AM 43.0667 -80.0167 200° South 100 115 6,000 300 Climbing Toronto Center
Fri 12:45:29 AM 43.0333 -80.0500 216° Southwest 150 173 6,000  Level Toronto Center
Fri 12:46:29 AM 42.9833 -80.0667 194° South 160 184 6,000 -50 Level Toronto Center
Fri 12:47:29 AM 42.9500 -80.0833 200° South 160 184 5,900 -50 Descending Toronto Center
Fri 12:48:29 AM 42.9167 -80.1167 216° Southwest 160 184 5,900 50 Level Toronto Center
Fri 12:49:29 AM 42.8667 -80.1333 194° South 160 184 6,000  Climbing Toronto Center
Fri 12:50:09 AM 42.8533 -80.1783 248° West 160 184 5,900 -60 Descending Cleveland Center
Fri 12:51:09 AM 42.8119 -80.2067 207° Southwest 160 184 5,900  Level Cleveland Center
Fri 12:52:09 AM 42.7764 -80.2325 208° Southwest 160 184 5,900  Level Cleveland Center
Fri 12:53:09 AM 42.7411 -80.2722 220° Southwest 160 184 5,900  Level Cleveland Center
Fri 12:54:09 AM 42.7078 -80.3006 212° Southwest 165 190 5,900 50 Level Cleveland Center
Fri 12:55:09 AM 42.6683 -80.3264 206° Southwest 165 190 6,000 50 Climbing Cleveland Center
Fri 12:56:09 AM 42.6308 -80.3517 206° Southwest 160 184 6,000 -50 Level Cleveland Center
Fri 12:57:09 AM 42.5872 -80.3772 203° Southwest 160 184 5,900  Descending Cleveland Center
Fri 12:58:10 AM 42.5475 -80.4028 205° Southwest 160 184 6,000 50 Climbing Cleveland Center
Fri 12:59:09 AM 42.5017 -80.4283 202° Southwest 160 184 6,000 -50 Level Cleveland Center
Fri 01:00:09 AM 42.4622 -80.4594 210° Southwest 160 184 5,900 -50 Descending Cleveland Center
Fri 01:01:09 AM 42.4206 -80.4847 204° Southwest 160 184 5,900  Level Cleveland Center
Fri 01:02:09 AM 42.3769 -80.5100 203° Southwest 160 184 5,900  Level Cleveland Center
Fri 01:03:09 AM 42.3394 -80.5383 209° Southwest 160 184 5,900  Level Cleveland Center
Fri 01:04:09 AM 42.2997 -80.5608 203° Southwest 155 178 5,900  Level Cleveland Center
Fri 01:05:10 AM 42.2581 -80.5858 204° Southwest 155 178 5,900 50 Level Cleveland Center
Fri 01:06:09 AM 42.2206 -80.6111 207° Southwest 155 178 6,000  Climbing Cleveland Center
Fri 01:07:09 AM 42.1831 -80.6392 209° Southwest 155 178 5,900 -50 Descending Cleveland Center
Fri 01:08:10 AM 42.1392 -80.6586 198° South 155 178 5,900  Level Cleveland Center
Fri 01:09:09 AM 42.0994 -80.6839 205° Southwest 160 184 5,900  Level Cleveland Center
Fri 01:10:09 AM 42.0619 -80.7061 204° Southwest 154 177 5,900 50 Level Cleveland Center
Fri 01:11:09 AM 42.0203 -80.7283 202° Southwest 159 183 6,000 50 Climbing Cleveland Center
Fri 01:12:09 AM 41.9828 -80.7564 209° Southwest 159 183 6,000 -50 Level Cleveland Center
Fri 01:13:09 AM 41.9431 -80.7814 205° Southwest 154 177 5,900  Descending Cleveland Center
Fri 01:14:09 AM 41.9033 -80.8036 203° Southwest 154 177 6,000 50 Climbing Cleveland Center
Fri 01:15:09 AM 41.8617 -80.8342 209° Southwest 154 177 6,000  Level Cleveland Center
Fri 01:16:09 AM 41.8242 -80.8589 206° Southwest 154 177 6,000  Level Cleveland Center
Fri 01:17:09 AM 41.7867 -80.8839 206° Southwest 154 177 6,000  Level Cleveland Center
Fri 01:18:09 AM 41.7489 -80.9061 204° Southwest 154 177 6,000 -50 Level Cleveland Center
Fri 01:19:09 AM 41.7114 -80.9308 206° Southwest 154 177 5,900 -50 Descending Cleveland Center
Fri 01:20:09 AM 41.6758 -80.9528 205° Southwest 154 177 5,900  Level Cleveland Center
Fri 01:21:09 AM 41.6361 -80.9775 205° Southwest 154 177 5,900  Level Cleveland Center
Fri 01:22:09 AM 41.6006 -80.9997 205° Southwest 154 177 5,900  Level Cleveland Center
Fri 01:23:09 AM 41.5694 -81.0217 208° Southwest 154 177 5,900  Level Cleveland Center
Fri 01:24:09 AM 41.5297 -81.0436 202° Southwest 154 177 5,900  Level Cleveland Center
Fri 01:25:10 AM 41.4942 -81.0656 205° Southwest 154 177 5,900  Level Cleveland Center
Fri 01:26:09 AM 41.4586 -81.0931 210° Southwest 154 177 5,900  Level Cleveland Center
Fri 01:27:09 AM 41.4208 -81.1203 208° Southwest 154 177 5,900 50 Level Cleveland Center
Fri 01:28:09 AM 41.3853 -81.1422 205° Southwest 154 177 6,000 50 Climbing Cleveland Center
Fri 01:29:09 AM 41.3414 -81.1639 200° South 154 177 6,000  Level Cleveland Center
Fri 01:30:09 AM 41.3039 -81.1831 201° Southwest 154 177 6,000  Level Cleveland Center
Fri 01:31:09 AM 41.2642 -81.2047 202° Southwest 154 177 6,000  Level Cleveland Center
Fri 01:32:10 AM 41.2264 -81.2292 206° Southwest 154 177 6,000 -100 Level Cleveland Center
Fri 01:33:09 AM 41.1889 -81.2508 204° Southwest 154 177 5,800 -555 Descending Cleveland Center
Fri 01:34:09 AM 41.1492 -81.2753 205° Southwest 154 177 4,900 -750 Descending Cleveland Center
Fri 01:35:09 AM 41.1072 -81.3025 206° Southwest 159 183 4,300 -500 Descending Cleveland Center
Fri 01:36:09 AM 41.0736 -81.3267 208° Southwest 159 183 3,900 -450 Descending Cleveland Center
Fri 01:37:09 AM 41.0319 -81.3539 206° Southwest 159 183 3,400 -500 Descending Cleveland Center
Fri 01:38:09 AM 40.9942 -81.3781 206° Southwest 159 183 2,900 -650 Descending Cleveland Center
Fri 01:39:09 AM 40.9564 -81.3997 203° Southwest 159 183 2,100 -600 Descending Cleveland Center
Fri 01:40:09 AM 40.9292 -81.4242 214° Southwest 135 155 1,700 -300 Descending Cleveland Center
Fri 01:41:09 AM 40.8914 -81.4539 211° Southwest 130 150 1,500 700 Descending Cleveland Center
Fri 01:42:09 AM 40.8600 -81.4808 213° Southwest 130 150 3,100 800 Climbing Cleveland Center
Fri 01:43:09 AM 40.8283 -81.5078 213° Southwest 130 150 3,100  Level Cleveland Center
Fri 01:44:09 AM 40.7969 -81.5347 213° Southwest 130 150 3,100  Level Cleveland Center
Fri 01:45:09 AM 40.7906 -81.5403 213° Southwest 130 150 3,100  Level Cleveland Center
Fri 01:47:09 AM 40.7906 -81.5403 159° South 130 150 3,100  Level Cleveland Center

Login

Don't have an account? Register now (free) for customized features, flight alerts, and more!